Time;durP1;ratioP1;P1;durP2;ratioP2;P2;SDS_P1;SDS_P2;PMS_P1;PMS_P2;Temp;Humidity;BMP_temperature;BMP_pressure;BME280_temperature;BME280_humidity;BME280_pressure;Samples;Min_cycle;Max_cycle;Signal;HPM_P1;HPM_P2
2023/04/25 00:00:25;;;;;;;2.08;1.35;;;8.40;99.90;;;;;;4951890;28;20027;-70
2023/04/25 00:02:51;;;;;;;2.90;1.40;;;8.40;99.90;;;;;;4953716;29;20075;-70
2023/04/25 00:05:17;;;;;;;2.88;1.33;;;8.30;99.90;;;;;;4953854;29;20031;-70
2023/04/25 00:07:42;;;;;;;2.10;1.50;;;8.30;99.90;;;;;;4954077;29;20038;-72
2023/04/25 00:10:10;;;;;;;2.63;1.60;;;8.30;99.90;;;;;;4954600;29;20394;-74
2023/04/25 00:12:36;;;;;;;1.58;1.45;;;8.30;99.90;;;;;;4956698;28;20037;-70
2023/04/25 00:15:03;;;;;;;1.42;1.30;;;8.40;99.90;;;;;;4959603;28;20742;-70
2023/04/25 00:17:29;;;;;;;4.00;1.45;;;8.30;99.90;;;;;;4953505;29;20032;-70
2023/04/25 00:19:55;;;;;;;4.03;1.25;;;8.30;99.90;;;;;;4954713;28;20477;-70
2023/04/25 00:22:21;;;;;;;3.40;1.50;;;8.30;99.90;;;;;;4953391;29;20071;-70
2023/04/25 00:24:47;;;;;;;1.73;0.98;;;8.30;99.90;;;;;;4954675;29;20039;-70
2023/04/25 00:27:12;;;;;;;3.35;1.45;;;8.30;99.90;;;;;;4952944;29;20041;-71
2023/04/25 00:29:38;;;;;;;2.92;1.23;;;8.30;99.90;;;;;;4953938;29;20035;-72
2023/04/25 00:32:04;;;;;;;3.92;1.88;;;8.20;99.90;;;;;;4951408;28;20046;-71
2023/04/25 00:34:29;;;;;;;2.47;1.58;;;8.20;99.90;;;;;;4953790;29;20035;-70
2023/04/25 00:36:55;;;;;;;2.70;1.55;;;8.20;99.90;;;;;;4953960;29;20159;-70
2023/04/25 00:39:21;;;;;;;3.53;1.33;;;8.20;99.90;;;;;;4953976;29;20032;-70
2023/04/25 00:41:47;;;;;;;1.95;1.33;;;8.20;99.90;;;;;;4953990;29;20050;-70
2023/04/25 00:44:16;;;;;;;1.92;1.20;;;8.20;99.90;;;;;;4953835;29;20078;-71
2023/04/25 00:46:42;;;;;;;3.75;1.48;;;8.20;99.90;;;;;;4952980;28;20030;-71
2023/04/25 00:49:08;;;;;;;2.35;1.58;;;8.20;99.90;;;;;;4937048;29;20039;-74
2023/04/25 00:51:34;;;;;;;1.98;1.30;;;8.10;99.90;;;;;;4953338;29;20056;-71
2023/04/25 00:54:00;;;;;;;1.52;1.40;;;8.10;99.90;;;;;;4954334;29;20361;-71
2023/04/25 00:56:25;;;;;;;3.08;1.30;;;8.10;99.90;;;;;;4952690;29;20112;-71
2023/04/25 00:58:55;;;;;;;1.77;1.27;;;8.10;99.90;;;;;;4953575;28;20027;-70
2023/04/25 01:01:20;;;;;;;1.47;1.30;;;8.10;99.90;;;;;;4949404;29;20035;-71
2023/04/25 01:03:46;;;;;;;1.70;1.55;;;8.10;99.90;;;;;;4954005;28;20495;-70
2023/04/25 01:06:12;;;;;;;2.97;1.70;;;8.00;99.90;;;;;;4952837;29;20106;-73
2023/04/25 01:08:39;;;;;;;1.98;1.38;;;8.00;99.90;;;;;;4954309;29;20106;-70
2023/04/25 01:11:05;;;;;;;2.50;1.40;;;8.00;99.90;;;;;;4948743;29;20544;-70
2023/04/25 01:13:31;;;;;;;1.63;1.25;;;8.00;99.90;;;;;;4935714;29;20027;-69
2023/04/25 01:15:58;;;;;;;2.28;1.40;;;8.00;99.90;;;;;;4953720;29;20465;-69
2023/04/25 01:18:24;;;;;;;3.67;1.70;;;8.00;99.90;;;;;;4952570;29;20061;-71
2023/04/25 01:20:52;;;;;;;3.92;1.80;;;8.10;99.90;;;;;;4936299;28;20055;-74
2023/04/25 01:23:19;;;;;;;3.58;1.88;;;8.10;99.90;;;;;;4952255;28;20603;-71
2023/04/25 01:25:45;;;;;;;3.17;1.73;;;8.10;99.90;;;;;;4936542;29;20033;-70
2023/04/25 01:28:11;;;;;;;2.35;1.95;;;8.20;99.90;;;;;;4935447;29;20067;-73
2023/04/25 01:30:38;;;;;;;2.92;1.50;;;8.20;99.90;;;;;;4945168;29;20039;-70
2023/04/25 01:33:05;;;;;;;4.63;1.90;;;8.20;99.90;;;;;;4953020;29;20393;-70
2023/04/25 01:35:31;;;;;;;3.83;1.80;;;8.20;99.90;;;;;;4952703;29;20042;-70
2023/04/25 01:37:57;;;;;;;1.67;1.58;;;8.20;99.90;;;;;;4953248;29;20477;-70
2023/04/25 01:40:24;;;;;;;3.13;2.22;;;8.10;99.90;;;;;;4952804;28;20028;-70
2023/04/25 01:42:50;;;;;;;6.45;2.00;;;8.10;99.90;;;;;;4944765;29;20042;-70
2023/04/25 01:45:17;;;;;;;5.13;1.77;;;8.20;99.90;;;;;;4953243;29;20062;-70
2023/04/25 01:47:46;;;;;;;3.03;1.70;;;8.10;99.90;;;;;;4953030;29;20039;-70
2023/04/25 01:50:12;;;;;;;5.27;1.63;;;8.10;99.90;;;;;;4952489;29;20042;-70
2023/04/25 01:52:38;;;;;;;4.50;1.95;;;8.10;99.90;;;;;;4952876;29;20032;-69
2023/04/25 01:55:04;;;;;;;3.15;2.10;;;8.10;99.90;;;;;;4953265;28;20523;-70
2023/04/25 01:57:30;;;;;;;4.80;2.10;;;8.10;99.90;;;;;;4952412;29;20058;-70
2023/04/25 01:59:59;;;;;;;2.47;2.20;;;8.10;99.90;;;;;;4950799;29;20035;-73
2023/04/25 02:02:25;;;;;;;4.00;2.20;;;8.10;99.90;;;;;;4951138;29;20043;-70
2023/04/25 02:04:51;;;;;;;3.85;1.88;;;8.00;99.90;;;;;;4953549;29;20461;-70
2023/04/25 02:07:17;;;;;;;2.90;1.85;;;8.00;99.90;;;;;;4952006;29;20046;-71
2023/04/25 02:09:42;;;;;;;2.05;1.90;;;8.00;99.90;;;;;;4949130;28;20031;-70
2023/04/25 02:12:10;;;;;;;2.17;1.70;;;8.10;99.90;;;;;;4956515;28;20074;-73
2023/04/25 02:14:35;;;;;;;2.80;1.70;;;8.00;99.90;;;;;;4957065;29;20507;-70
2023/04/25 02:17:01;;;;;;;5.32;2.03;;;8.00;99.90;;;;;;4956966;29;20031;-70
2023/04/25 02:19:27;;;;;;;3.05;2.20;;;8.00;99.90;;;;;;4956329;29;20046;-70
2023/04/25 02:21:52;;;;;;;2.55;2.13;;;8.00;99.90;;;;;;4956001;29;20039;-70
2023/04/25 02:24:18;;;;;;;4.90;2.03;;;8.00;99.90;;;;;;4955889;29;20470;-70
2023/04/25 02:26:44;;;;;;;4.95;2.00;;;7.90;99.90;;;;;;4956348;29;20050;-69
2023/04/25 02:29:10;;;;;;;3.72;1.85;;;8.00;99.90;;;;;;4957371;28;20397;-74
2023/04/25 02:31:35;;;;;;;2.80;2.13;;;7.90;99.90;;;;;;4960282;28;20035;-71
2023/04/25 02:34:01;;;;;;;4.18;1.73;;;7.90;99.90;;;;;;4956869;29;20554;-71
2023/04/25 02:36:27;;;;;;;3.17;1.85;;;7.90;99.90;;;;;;4955900;29;20592;-70
2023/04/25 02:38:53;;;;;;;2.17;1.98;;;7.90;99.90;;;;;;4954866;29;20031;-70
2023/04/25 02:41:18;;;;;;;3.17;1.90;;;7.80;99.90;;;;;;4955291;29;20046;-70
2023/04/25 02:43:44;;;;;;;4.05;1.50;;;7.80;99.90;;;;;;4956263;29;20467;-71
2023/04/25 02:46:10;;;;;;;3.05;1.83;;;7.80;99.90;;;;;;4955103;28;20484;-73
2023/04/25 02:48:35;;;;;;;3.65;1.52;;;7.80;99.90;;;;;;4958484;28;20069;-70
2023/04/25 02:51:01;;;;;;;2.42;1.48;;;7.80;99.90;;;;;;4956336;29;20823;-70
2023/04/25 02:53:26;;;;;;;1.67;1.58;;;7.80;99.90;;;;;;4955353;29;20078;-70
2023/04/25 02:55:52;;;;;;;4.55;1.80;;;7.80;99.90;;;;;;4956283;29;20378;-70
2023/04/25 02:58:18;;;;;;;1.98;1.52;;;7.80;99.90;;;;;;4955367;29;20020;-70
2023/04/25 03:00:44;;;;;;;3.65;1.90;;;7.80;99.90;;;;;;4956695;29;20089;-69
2023/04/25 03:03:09;;;;;;;6.25;1.55;;;7.70;99.90;;;;;;4960903;28;20059;-74
2023/04/25 03:05:35;;;;;;;1.85;1.63;;;7.70;99.90;;;;;;4955967;29;20023;-70
2023/04/25 03:08:00;;;;;;;2.65;1.30;;;7.70;99.90;;;;;;4955673;29;20461;-70
2023/04/25 03:10:26;;;;;;;3.25;1.77;;;7.70;99.90;;;;;;4953048;28;20031;-70
2023/04/25 03:12:51;;;;;;;3.17;1.50;;;7.70;99.90;;;;;;4955582;29;20106;-70
2023/04/25 03:15:18;;;;;;;3.45;1.85;;;7.60;99.90;;;;;;4955309;29;20031;-70
2023/04/25 03:17:44;;;;;;;3.80;1.63;;;7.60;99.90;;;;;;4955364;29;20106;-71
2023/04/25 03:20:10;;;;;;;2.70;1.63;;;7.70;99.90;;;;;;4955752;28;20447;-73
2023/04/25 03:22:36;;;;;;;3.90;1.70;;;7.60;99.90;;;;;;4954756;29;20035;-70
2023/04/25 03:25:02;;;;;;;5.32;1.85;;;7.60;99.90;;;;;;4955647;29;20390;-71
2023/04/25 03:27:28;;;;;;;3.17;1.83;;;7.60;99.90;;;;;;4954490;29;20469;-70
2023/04/25 03:29:53;;;;;;;3.38;1.80;;;7.60;99.90;;;;;;4956252;29;20031;-70
2023/04/25 03:32:19;;;;;;;1.95;1.70;;;7.70;99.90;;;;;;4950733;29;20114;-71
2023/04/25 03:34:45;;;;;;;4.70;1.77;;;7.70;99.90;;;;;;4955755;29;20038;-71
2023/04/25 03:37:10;;;;;;;2.95;1.73;;;7.70;99.90;;;;;;4954882;28;20457;-74
2023/04/25 03:39:37;;;;;;;3.55;2.25;;;7.60;99.90;;;;;;4954473;29;20027;-71
2023/04/25 03:42:03;;;;;;;2.10;1.70;;;7.60;99.90;;;;;;4955062;29;20114;-70
2023/04/25 03:44:28;;;;;;;2.22;1.52;;;7.60;99.90;;;;;;4954627;29;20111;-69
2023/04/25 03:46:54;;;;;;;3.92;1.85;;;7.50;99.90;;;;;;4955132;29;20027;-71
2023/04/25 03:49:19;;;;;;;3.88;1.90;;;7.60;99.90;;;;;;4954636;29;20376;-71
2023/04/25 03:51:45;;;;;;;4.38;1.88;;;7.50;99.90;;;;;;4956275;28;20031;-70
2023/04/25 03:54:10;;;;;;;2.72;2.00;;;7.50;99.90;;;;;;4954907;29;20480;-74
2023/04/25 03:56:36;;;;;;;1.90;1.55;;;7.50;99.90;;;;;;4954794;29;20027;-73
2023/04/25 03:59:02;;;;;;;2.80;1.77;;;7.50;99.90;;;;;;4955260;29;20772;-70
2023/04/25 04:01:27;;;;;;;2.65;1.95;;;7.50;99.90;;;;;;4951758;29;20066;-71
2023/04/25 04:03:53;;;;;;;5.63;1.90;;;7.50;99.90;;;;;;4954517;29;20121;-70
2023/04/25 04:06:20;;;;;;;2.60;1.40;;;7.50;99.90;;;;;;4954409;28;20027;-75
2023/04/25 04:08:46;;;;;;;3.03;2.00;;;7.40;99.90;;;;;;4954576;29;20115;-71
2023/04/25 04:11:11;;;;;;;2.88;2.03;;;7.40;99.90;;;;;;4948969;29;20122;-76
2023/04/25 04:13:37;;;;;;;2.95;2.00;;;7.30;99.90;;;;;;4951787;29;20043;-69
2023/04/25 04:16:04;;;;;;;4.80;2.33;;;7.30;99.90;;;;;;4952529;29;20034;-70
2023/04/25 04:18:29;;;;;;;3.20;2.20;;;7.30;99.90;;;;;;4952267;29;20086;-71
2023/04/25 04:20:57;;;;;;;2.50;1.67;;;7.30;99.90;;;;;;4954223;29;20062;-70
2023/04/25 04:23:23;;;;;;;3.38;1.98;;;7.20;99.90;;;;;;4950514;29;20035;-70
2023/04/25 04:25:49;;;;;;;3.55;2.20;;;7.20;99.90;;;;;;4953721;28;20461;-71
2023/04/25 04:28:15;;;;;;;3.58;2.30;;;7.20;99.90;;;;;;4942947;29;20027;-71
2023/04/25 04:30:42;;;;;;;4.25;2.40;;;7.20;99.90;;;;;;4953810;29;20031;-70
2023/04/25 04:33:08;;;;;;;5.03;2.53;;;7.20;99.90;;;;;;4949632;28;20043;-71
2023/04/25 04:35:34;;;;;;;4.22;2.25;;;7.30;99.90;;;;;;4946229;29;20034;-71
2023/04/25 04:38:00;;;;;;;6.75;2.20;;;7.30;99.90;;;;;;4950315;29;20035;-72
2023/04/25 04:40:25;;;;;;;3.65;2.40;;;7.30;99.90;;;;;;4950714;29;20536;-71
2023/04/25 04:42:53;;;;;;;4.15;2.55;;;7.30;99.90;;;;;;4949576;29;20035;-70
2023/04/25 04:45:18;;;;;;;5.53;2.38;;;7.40;99.90;;;;;;4948978;29;20559;-72
2023/04/25 04:47:44;;;;;;;3.25;2.40;;;7.40;99.90;;;;;;4947167;29;20128;-70
2023/04/25 04:50:10;;;;;;;2.38;2.08;;;7.50;99.90;;;;;;4948154;29;20031;-74
2023/04/25 04:52:37;;;;;;;2.55;1.90;;;7.50;99.90;;;;;;4951642;29;20059;-70
2023/04/25 04:55:05;;;;;;;3.92;2.40;;;7.50;99.90;;;;;;4947511;29;20032;-72
2023/04/25 04:57:32;;;;;;;5.43;2.60;;;7.50;99.90;;;;;;4948921;29;20027;-71
2023/04/25 04:59:58;;;;;;;4.20;2.10;;;7.60;99.90;;;;;;4929755;29;20037;-72
2023/04/25 05:02:24;;;;;;;4.70;2.08;;;7.60;99.90;;;;;;4946221;28;20126;-72
2023/04/25 05:04:51;;;;;;;8.23;2.50;;;7.60;99.90;;;;;;4948684;29;20031;-71
2023/04/25 05:07:17;;;;;;;3.75;2.60;;;7.60;99.90;;;;;;4952751;29;20496;-71
2023/04/25 05:09:42;;;;;;;5.43;2.45;;;7.70;99.90;;;;;;4954167;29;20032;-70
2023/04/25 05:12:08;;;;;;;4.88;2.22;;;7.70;99.90;;;;;;4951878;29;20035;-71
2023/04/25 05:14:33;;;;;;;2.60;2.05;;;7.70;99.90;;;;;;4952909;29;20038;-70
2023/04/25 05:16:59;;;;;;;5.00;2.40;;;7.80;99.90;;;;;;4953531;29;20082;-70
2023/04/25 05:19:25;;;;;;;7.25;2.58;;;7.80;99.90;;;;;;4953290;29;20392;-73
2023/04/25 05:21:50;;;;;;;7.53;2.67;;;7.80;99.90;;;;;;4953270;29;20042;-73
2023/04/25 05:24:16;;;;;;;4.35;2.10;;;7.90;99.90;;;;;;4952865;29;20034;-73
2023/04/25 05:26:41;;;;;;;2.58;2.20;;;8.00;99.90;;;;;;4953468;29;20027;-73
2023/04/25 05:29:07;;;;;;;4.30;2.25;;;8.10;99.90;;;;;;4953460;29;20062;-73
2023/04/25 05:31:33;;;;;;;3.22;2.50;;;8.20;99.90;;;;;;4952781;29;20031;-74
2023/04/25 05:33:58;;;;;;;4.13;2.65;;;8.30;99.90;;;;;;4953555;29;20476;-73
2023/04/25 05:36:24;;;;;;;3.42;2.30;;;8.40;99.90;;;;;;4952332;29;20035;-74
2023/04/25 05:38:50;;;;;;;5.38;2.70;;;8.50;99.90;;;;;;4953715;29;20062;-73
2023/04/25 05:41:15;;;;;;;4.40;2.85;;;8.60;99.90;;;;;;4951983;29;20043;-74
2023/04/25 05:43:46;;;;;;;3.30;2.25;;;8.70;99.90;;;;;;4952342;28;20119;-73
2023/04/25 05:46:12;;;;;;;3.42;2.40;;;8.80;99.90;;;;;;4952485;29;20058;-74
2023/04/25 05:48:39;;;;;;;3.20;2.60;;;8.80;99.90;;;;;;4953242;29;20469;-73
2023/04/25 05:51:05;;;;;;;3.60;2.40;;;8.90;99.90;;;;;;4953365;29;20035;-68
2023/04/25 05:53:30;;;;;;;3.45;2.53;;;8.90;99.90;;;;;;4951965;29;20607;-69
2023/04/25 05:55:56;;;;;;;3.35;2.17;;;8.90;99.90;;;;;;4953065;29;20106;-69
2023/04/25 05:58:22;;;;;;;3.05;2.38;;;8.90;99.90;;;;;;4951330;29;20461;-69
2023/04/25 06:00:47;;;;;;;2.72;2.20;;;8.90;99.90;;;;;;4952842;29;20024;-69
2023/04/25 06:03:14;;;;;;;4.82;2.30;;;8.90;99.90;;;;;;4951289;29;20098;-70
2023/04/25 06:05:42;;;;;;;2.58;2.17;;;8.80;99.90;;;;;;4950083;29;20507;-73
2023/04/25 06:08:08;;;;;;;2.40;2.20;;;8.70;99.90;;;;;;4947474;29;20371;-73
2023/04/25 06:10:33;;;;;;;2.80;2.38;;;8.70;99.90;;;;;;4941273;29;20034;-73
2023/04/25 06:12:59;;;;;;;3.65;2.08;;;8.60;99.90;;;;;;4944777;29;20031;-73
2023/04/25 06:15:24;;;;;;;3.35;1.67;;;8.60;99.90;;;;;;4950997;29;20027;-72
2023/04/25 06:17:50;;;;;;;3.17;1.85;;;8.60;99.90;;;;;;4950923;29;20062;-72
2023/04/25 06:20:16;;;;;;;2.58;1.90;;;8.60;99.90;;;;;;4950943;29;20032;-72
2023/04/25 06:22:41;;;;;;;7.88;2.70;;;8.70;99.90;;;;;;4950674;29;20041;-71
2023/04/25 06:25:07;;;;;;;3.92;2.00;;;8.70;99.90;;;;;;4951449;29;20130;-73
2023/04/25 06:27:35;;;;;;;3.13;1.90;;;8.80;99.90;;;;;;4950367;29;20034;-73
2023/04/25 06:30:01;;;;;;;3.47;1.95;;;8.80;99.90;;;;;;4951296;29;20042;-71
2023/04/25 06:32:28;;;;;;;2.55;2.17;;;8.80;99.90;;;;;;4950502;29;20043;-72
2023/04/25 06:34:54;;;;;;;3.50;2.08;;;9.00;99.90;;;;;;4947950;29;20028;-71
2023/04/25 06:37:19;;;;;;;13.25;3.03;;;9.10;99.90;;;;;;4945163;29;20038;-73
2023/04/25 06:39:45;;;;;;;3.05;2.05;;;9.00;99.90;;;;;;4945161;29;20032;-72
2023/04/25 06:42:11;;;;;;;4.30;2.20;;;9.10;99.90;;;;;;4943174;29;20182;-75
2023/04/25 06:44:36;;;;;;;4.40;1.95;;;9.10;99.90;;;;;;4945125;29;20187;-73
2023/04/25 06:47:02;;;;;;;5.22;2.38;;;9.20;99.90;;;;;;4944956;29;20520;-73
2023/04/25 06:49:27;;;;;;;3.92;2.22;;;9.30;99.90;;;;;;4949839;29;20081;-73
2023/04/25 06:51:53;;;;;;;3.72;2.25;;;9.30;99.90;;;;;;4947916;29;20035;-72
2023/04/25 06:54:19;;;;;;;3.53;2.28;;;9.40;99.90;;;;;;4947595;29;20031;-73
2023/04/25 06:56:44;;;;;;;3.85;2.40;;;9.50;99.90;;;;;;4948367;29;20043;-72
2023/04/25 06:59:10;;;;;;;4.47;2.40;;;9.50;99.90;;;;;;4952926;29;20039;-73
2023/04/25 07:01:35;;;;;;;5.38;2.33;;;9.40;99.90;;;;;;4954334;29;20037;-73
2023/04/25 07:04:01;;;;;;;2.63;2.25;;;9.50;99.90;;;;;;4957491;29;20389;-71
2023/04/25 07:06:27;;;;;;;3.50;2.28;;;9.50;99.90;;;;;;4953475;29;20031;-72
2023/04/25 07:08:53;;;;;;;2.08;1.88;;;9.40;99.90;;;;;;4955144;29;20090;-72
2023/04/25 07:11:19;;;;;;;3.75;2.33;;;9.40;99.90;;;;;;4953907;29;20031;-72
2023/04/25 07:13:45;;;;;;;2.25;2.05;;;9.30;99.90;;;;;;4954420;29;20066;-72
2023/04/25 07:16:10;;;;;;;2.67;2.20;;;9.20;99.90;;;;;;4954286;29;20043;-74
2023/04/25 07:18:36;;;;;;;2.45;2.20;;;9.10;99.90;;;;;;4936882;29;20073;-72
2023/04/25 07:21:01;;;;;;;2.90;2.50;;;8.90;99.90;;;;;;4954835;29;20086;-73
2023/04/25 07:23:27;;;;;;;4.25;3.00;;;8.70;99.90;;;;;;4953549;29;20066;-73
2023/04/25 07:25:53;;;;;;;4.45;2.88;;;8.60;99.90;;;;;;4954951;29;20065;-72
2023/04/25 07:28:18;;;;;;;5.40;3.88;;;8.50;99.90;;;;;;4952962;29;20023;-73
2023/04/25 07:30:44;;;;;;;4.53;3.25;;;8.50;99.90;;;;;;4954095;29;20039;-73
2023/04/25 07:33:10;;;;;;;4.78;3.13;;;8.50;99.90;;;;;;4950726;29;20062;-75
2023/04/25 07:35:35;;;;;;;3.33;3.03;;;8.50;99.90;;;;;;4948063;29;20034;-72
2023/04/25 07:38:02;;;;;;;5.22;3.10;;;8.40;99.90;;;;;;4953997;29;20043;-71
2023/04/25 07:40:28;;;;;;;5.00;3.60;;;8.50;99.90;;;;;;4936268;29;20030;-73
2023/04/25 07:42:53;;;;;;;6.18;3.50;;;8.50;99.90;;;;;;4952142;29;20039;-72
2023/04/25 07:45:19;;;;;;;4.97;3.60;;;8.40;99.90;;;;;;4953789;29;20106;-72
2023/04/25 07:47:45;;;;;;;5.47;3.83;;;8.40;99.90;;;;;;4953850;29;20037;-72
2023/04/25 07:50:11;;;;;;;4.85;3.40;;;8.40;99.90;;;;;;4953963;29;20024;-73
2023/04/25 07:52:36;;;;;;;5.45;3.60;;;8.30;99.90;;;;;;4953094;29;20457;-71
2023/04/25 07:55:03;;;;;;;6.28;4.28;;;8.30;99.90;;;;;;4952615;29;20039;-72
2023/04/25 07:57:29;;;;;;;6.55;4.80;;;8.20;99.90;;;;;;4952790;29;20027;-72
2023/04/25 07:59:54;;;;;;;5.03;3.60;;;8.20;99.90;;;;;;4953526;29;20468;-72
2023/04/25 08:02:20;;;;;;;5.10;4.60;;;8.10;99.90;;;;;;4948389;29;20043;-72
2023/04/25 08:04:46;;;;;;;5.13;3.95;;;8.00;99.90;;;;;;4952652;28;20075;-71
2023/04/25 08:07:11;;;;;;;5.55;3.97;;;7.90;99.90;;;;;;4950226;28;20063;-74
2023/04/25 08:09:37;;;;;;;6.22;4.47;;;7.70;99.90;;;;;;4952738;29;20553;-71
2023/04/25 08:12:04;;;;;;;7.55;5.00;;;7.60;99.90;;;;;;4945684;29;20039;-72
2023/04/25 08:14:35;;;;;;;8.45;5.30;;;7.60;99.90;;;;;;4947706;29;20031;-71
2023/04/25 08:17:03;;;;;;;6.60;4.72;;;7.60;99.90;;;;;;4953071;29;20038;-72
2023/04/25 08:19:29;;;;;;;6.45;5.03;;;7.60;99.90;;;;;;4953525;29;20114;-72
2023/04/25 08:21:56;;;;;;;6.07;4.43;;;7.60;99.90;;;;;;4954131;29;20046;-72
2023/04/25 08:24:21;;;;;;;8.90;4.63;;;7.60;99.90;;;;;;4953647;29;20062;-71
2023/04/25 08:26:47;;;;;;;6.25;4.75;;;7.60;99.90;;;;;;4953609;29;20066;-72
2023/04/25 08:29:13;;;;;;;7.78;4.65;;;7.60;99.90;;;;;;4952986;29;20059;-72
2023/04/25 08:31:38;;;;;;;8.52;4.90;;;7.50;99.90;;;;;;4953559;29;20031;-72
2023/04/25 08:34:04;;;;;;;6.00;5.35;;;7.50;99.90;;;;;;4948821;29;20035;-72
2023/04/25 08:36:31;;;;;;;6.22;4.88;;;7.40;99.90;;;;;;4952229;29;20027;-72
2023/04/25 08:38:56;;;;;;;5.68;4.93;;;7.50;99.90;;;;;;4962379;29;20047;-71
2023/04/25 08:41:23;;;;;;;8.13;5.15;;;7.50;99.90;;;;;;4948843;29;20409;-71
2023/04/25 08:43:50;;;;;;;8.93;4.82;;;7.50;99.90;;;;;;4956095;29;20090;-72
2023/04/25 08:46:18;;;;;;;6.15;4.80;;;7.40;99.90;;;;;;4960202;29;20468;-73
2023/04/25 08:48:45;;;;;;;6.70;4.97;;;7.30;99.90;;;;;;4955794;29;20370;-71
2023/04/25 08:51:18;;;;;;;6.72;5.20;;;7.30;99.90;;;;;;4953051;29;20469;-74
2023/04/25 08:53:46;;;;;;;7.70;5.50;;;7.30;99.90;;;;;;4953481;29;20035;-72
2023/04/25 08:56:16;;;;;;;7.30;5.15;;;7.20;99.90;;;;;;4952889;29;20034;-75
2023/04/25 08:58:42;;;;;;;7.43;5.35;;;7.30;99.90;;;;;;4953225;29;20085;-71
2023/04/25 09:01:08;;;;;;;9.95;4.97;;;7.30;99.90;;;;;;4952057;29;20082;-72
2023/04/25 09:03:35;;;;;;;6.63;5.05;;;7.30;99.90;;;;;;4934407;29;20063;-71
2023/04/25 09:06:01;;;;;;;8.43;4.95;;;7.20;99.90;;;;;;4952814;29;20031;-71
2023/04/25 09:08:26;;;;;;;6.65;5.28;;;7.10;99.90;;;;;;4951579;29;20031;-72
2023/04/25 09:10:52;;;;;;;6.93;5.47;;;7.10;99.90;;;;;;4949284;29;20027;-72
2023/04/25 09:13:26;;;;;;;8.63;5.68;;;7.20;99.90;;;;;;4951212;29;20174;-72
2023/04/25 09:15:56;;;;;;;8.65;5.40;;;7.20;99.90;;;;;;4952172;29;20031;-72
2023/04/25 09:18:26;;;;;;;;;;;7.20;99.90;;;;;;4951130;28;20035;-72
2023/04/25 09:20:57;;;;;;;8.27;5.28;;;7.20;99.90;;;;;;4952156;29;19910;-71
2023/04/25 09:23:23;;;;;;;9.05;5.50;;;7.20;99.90;;;;;;4950628;29;20043;-71
2023/04/25 09:25:50;;;;;;;6.28;5.00;;;7.20;99.90;;;;;;4951731;29;20062;-71
2023/04/25 09:28:22;;;;;;;9.48;5.15;;;7.20;99.90;;;;;;4950648;29;20110;-71
2023/04/25 09:30:48;;;;;;;8.45;5.20;;;7.20;99.90;;;;;;4948376;29;20070;-71
2023/04/25 09:33:13;;;;;;;9.18;6.00;;;7.20;99.90;;;;;;4950019;29;20409;-70
2023/04/25 09:35:42;;;;;;;8.30;5.18;;;7.20;99.90;;;;;;4951761;29;20029;-71
2023/04/25 09:38:14;;;;;;;6.07;4.90;;;7.20;99.90;;;;;;4950877;29;20046;-71
2023/04/25 09:40:45;;;;;;;6.60;5.55;;;7.10;99.90;;;;;;4949394;29;20023;-71
2023/04/25 09:43:21;;;;;;;8.93;5.82;;;7.10;99.90;;;;;;4949614;29;20067;-74
2023/04/25 09:45:47;;;;;;;7.72;5.68;;;7.00;99.90;;;;;;4949982;29;20027;-71
2023/04/25 09:48:18;;;;;;;8.32;6.10;;;7.00;99.90;;;;;;4949966;29;20046;-74
2023/04/25 09:50:43;;;;;;;7.57;5.90;;;7.00;99.90;;;;;;4951675;29;20035;-71
2023/04/25 09:53:09;;;;;;;7.68;6.10;;;7.00;99.90;;;;;;4951247;29;20465;-73
2023/04/25 09:55:36;;;;;;;8.10;5.88;;;7.00;99.90;;;;;;4951731;29;20031;-70
2023/04/25 09:58:08;;;;;;;7.63;6.03;;;6.90;99.90;;;;;;4950871;29;20484;-72
2023/04/25 10:00:35;;;;;;;9.75;6.18;;;6.90;99.90;;;;;;4951314;29;20027;-72
2023/04/25 10:03:05;;;;;;;7.43;5.55;;;6.80;99.90;;;;;;4951060;28;20133;-71
2023/04/25 10:05:35;;;;;;;6.53;5.20;;;6.80;99.90;;;;;;4951214;29;20066;-71
2023/04/25 10:08:03;;;;;;;8.23;5.30;;;6.80;99.90;;;;;;4951547;29;20469;-71
2023/04/25 10:10:32;;;;;;;5.18;3.58;;;6.90;99.90;;;;;;4952387;29;20069;-75
2023/04/25 10:12:58;;;;;;;2.40;2.20;;;6.90;99.90;;;;;;4956207;29;20053;-72
2023/04/25 10:15:25;;;;;;;2.90;2.30;;;6.90;99.90;;;;;;4954815;29;20055;-74
2023/04/25 10:17:50;;;;;;;2.22;1.70;;;6.70;99.90;;;;;;4954425;29;20397;-72
2023/04/25 10:20:16;;;;;;;2.08;0.63;;;6.60;99.90;;;;;;4959300;29;20051;-72
2023/04/25 10:22:44;;;;;;;0.77;0.77;;;6.30;99.90;;;;;;4962816;29;20113;-72
2023/04/25 10:25:11;;;;;;;3.13;0.80;;;6.00;99.90;;;;;;4951376;29;20088;-72
2023/04/25 10:27:37;;;;;;;2.67;1.20;;;5.80;99.90;;;;;;4952973;29;20060;-72
2023/04/25 10:30:05;;;;;;;1.58;1.48;;;5.60;99.90;;;;;;4953520;28;20059;-71
2023/04/25 10:32:34;;;;;;;2.38;2.17;;;5.50;99.90;;;;;;4956104;29;20225;-71
2023/04/25 10:35:17;;;;;;;3.72;2.63;;;5.50;99.90;;;;;;4956091;29;20384;-71
2023/04/25 10:38:02;;;;;;;4.07;2.83;;;5.60;99.90;;;;;;4956341;29;20035;-72
2023/04/25 10:40:28;;;;;;;4.93;3.10;;;5.70;99.90;;;;;;4956193;29;20038;-71
2023/04/25 10:42:55;;;;;;;4.95;3.70;;;5.80;99.90;;;;;;4956146;29;20462;-72
2023/04/25 10:45:21;;;;;;;5.80;3.78;;;5.90;99.90;;;;;;4955552;29;20118;-71
2023/04/25 10:47:46;;;;;;;4.70;3.65;;;6.00;99.90;;;;;;4956424;29;20113;-71
2023/04/25 10:50:15;;;;;;;5.78;4.22;;;6.10;99.90;;;;;;4955230;29;20060;-74
2023/04/25 10:52:41;;;;;;;8.73;4.60;;;6.10;99.90;;;;;;4956081;29;20114;-71
2023/04/25 10:55:07;;;;;;;5.78;3.95;;;6.30;99.90;;;;;;4956722;29;20047;-71
2023/04/25 10:57:39;;;;;;;5.35;4.47;;;6.40;99.90;;;;;;4955918;29;20109;-70
2023/04/25 11:00:11;;;;;;;6.88;4.90;;;6.30;99.90;;;;;;4956730;29;20090;-72
2023/04/25 11:02:42;;;;;;;6.13;4.93;;;6.40;99.90;;;;;;4953266;29;20046;-71
2023/04/25 11:05:09;;;;;;;7.65;5.53;;;6.20;99.90;;;;;;4956457;29;20023;-71
2023/04/25 11:07:45;;;;;;;6.97;5.18;;;6.20;99.90;;;;;;4956004;29;20035;-72
2023/04/25 11:10:11;;;;;;;4.40;2.92;;;6.20;99.90;;;;;;4955671;29;20086;-74
2023/04/25 11:12:36;;;;;;;3.42;2.60;;;6.30;99.90;;;;;;4953350;29;20035;-71
2023/04/25 11:15:07;;;;;;;2.88;2.58;;;6.20;99.90;;;;;;4956007;29;20031;-71
2023/04/25 11:17:33;;;;;;;3.42;2.40;;;6.10;99.90;;;;;;4955350;29;20063;-71
2023/04/25 11:19:59;;;;;;;2.40;2.20;;;6.10;99.90;;;;;;4956280;29;20061;-71
2023/04/25 11:22:27;;;;;;;3.08;2.35;;;6.10;99.90;;;;;;4955143;29;20055;-71
2023/04/25 11:24:53;;;;;;;2.63;2.40;;;6.10;99.90;;;;;;4956010;29;20031;-71
2023/04/25 11:27:18;;;;;;;4.95;3.10;;;6.10;99.90;;;;;;4954593;29;20098;-73
2023/04/25 11:29:44;;;;;;;6.00;3.28;;;6.10;99.90;;;;;;4956569;29;20106;-73
2023/04/25 11:32:10;;;;;;;5.03;3.50;;;6.10;99.90;;;;;;4954882;29;20038;-73
2023/04/25 11:34:35;;;;;;;4.90;3.65;;;6.30;99.90;;;;;;4956243;28;20104;-70
2023/04/25 11:37:02;;;;;;;4.30;3.42;;;6.30;99.90;;;;;;4954891;29;20071;-74
2023/04/25 11:39:28;;;;;;;4.00;3.60;;;6.40;99.90;;;;;;4955192;29;20122;-71
2023/04/25 11:41:55;;;;;;;4.45;3.78;;;6.50;99.90;;;;;;4954457;28;20039;-72
2023/04/25 11:44:21;;;;;;;4.07;3.20;;;6.60;99.90;;;;;;4954392;29;20034;-72
2023/04/25 11:46:48;;;;;;;3.35;2.70;;;6.60;99.90;;;;;;4955455;29;20028;-72
2023/04/25 11:49:15;;;;;;;3.05;2.78;;;6.70;99.90;;;;;;4954390;29;20114;-72
2023/04/25 11:51:42;;;;;;;3.30;2.97;;;6.80;99.90;;;;;;4954973;29;20054;-73
2023/04/25 11:54:09;;;;;;;6.65;3.00;;;6.80;99.90;;;;;;4955661;29;20035;-72
2023/04/25 11:56:34;;;;;;;3.85;3.10;;;6.90;99.90;;;;;;4937741;29;20027;-72
2023/04/25 11:59:05;;;;;;;4.72;3.67;;;6.90;99.90;;;;;;4954314;29;20027;-72
2023/04/25 12:01:34;;;;;;;5.60;3.80;;;7.00;99.90;;;;;;4954195;29;20031;-72
2023/04/25 12:04:23;;;;;;;5.43;3.80;;;7.00;99.90;;;;;;4954320;29;20047;-73
2023/04/25 12:06:51;;;;;;;4.57;3.95;;;7.00;99.90;;;;;;4955368;29;20031;-73
2023/04/25 12:09:27;;;;;;;6.85;5.20;;;7.10;99.90;;;;;;4954343;29;20027;-73
2023/04/25 12:11:56;;;;;;;7.22;5.47;;;7.10;99.90;;;;;;4949858;29;20089;-73
2023/04/25 12:14:33;;;;;;;6.55;5.43;;;7.20;99.90;;;;;;4954365;29;20098;-72
2023/04/25 12:17:02;;;;;;;5.85;4.75;;;7.40;99.90;;;;;;4955181;29;20071;-72
2023/04/25 12:19:35;;;;;;;8.30;5.13;;;7.60;99.90;;;;;;4954454;29;20024;-73
2023/04/25 12:22:05;;;;;;;6.80;4.80;;;7.60;99.90;;;;;;4954444;29;20051;-73
2023/04/25 12:24:33;;;;;;;5.80;4.50;;;7.60;99.90;;;;;;4936412;29;20609;-72
2023/04/25 12:27:02;;;;;;;5.88;5.20;;;7.50;99.90;;;;;;4949258;29;20036;-73
2023/04/25 12:29:29;;;;;;;6.85;5.18;;;7.40;99.90;;;;;;4954169;29;20487;-73
2023/04/25 12:31:55;;;;;;;6.93;4.75;;;7.30;99.90;;;;;;4953837;29;20405;-71
2023/04/25 12:34:22;;;;;;;6.68;4.93;;;7.30;99.90;;;;;;4953852;29;20091;-72
2023/04/25 12:36:48;;;;;;;6.43;5.15;;;7.20;99.90;;;;;;4953819;29;20377;-72
2023/04/25 12:39:24;;;;;;;7.28;5.65;;;7.10;99.90;;;;;;4953624;29;20078;-73
2023/04/25 12:41:53;;;;;;;7.18;5.97;;;7.10;99.90;;;;;;4946736;29;20050;-72
2023/04/25 12:44:19;;;;;;;6.97;5.80;;;7.10;99.90;;;;;;4953787;29;20035;-72
2023/04/25 12:46:45;;;;;;;7.30;6.15;;;7.20;99.90;;;;;;4953702;29;20031;-71
2023/04/25 12:49:11;;;;;;;9.18;6.28;;;7.30;99.90;;;;;;4954009;29;20082;-75
2023/04/25 12:51:37;;;;;;;6.32;5.50;;;7.50;99.90;;;;;;4953346;29;20023;-73
2023/04/25 12:54:05;;;;;;;9.77;5.65;;;7.70;99.90;;;;;;4954039;28;20464;-73